createdAt,value
2022-08-16T00:02:30.849Z,15.70
2022-08-16T00:04:59.717Z,15.80
2022-08-16T00:07:29.395Z,15.70
2022-08-16T00:09:57.790Z,15.60
2022-08-16T00:12:27.215Z,15.70
2022-08-16T00:14:56.739Z,15.70
2022-08-16T00:17:24.975Z,15.60
2022-08-16T00:19:53.701Z,15.50
2022-08-16T00:22:25.618Z,15.50
2022-08-16T00:24:54.980Z,15.40
2022-08-16T00:27:23.281Z,15.30
2022-08-16T00:30:00.612Z,15.30
2022-08-16T00:32:38.494Z,15.10
2022-08-16T00:35:15.320Z,15.00
2022-08-16T00:37:57.393Z,14.90
2022-08-16T00:40:50.885Z,14.80
2022-08-16T00:43:41.263Z,14.80
2022-08-16T00:46:22.303Z,14.80
2022-08-16T00:49:01.455Z,14.80
2022-08-16T00:51:29.692Z,14.90
2022-08-16T00:53:57.483Z,14.80
2022-08-16T00:56:58.437Z,15.00
2022-08-16T00:59:24.958Z,15.00
2022-08-16T01:01:52.549Z,15.00
2022-08-16T01:04:28.869Z,14.80
2022-08-16T01:07:01.144Z,14.60
2022-08-16T01:09:33.196Z,14.50
2022-08-16T01:12:02.277Z,14.40
2022-08-16T01:14:34.263Z,14.40
2022-08-16T01:17:02.999Z,14.40
2022-08-16T01:19:48.185Z,14.40
2022-08-16T01:22:52.741Z,14.30
2022-08-16T01:25:33.942Z,14.10
2022-08-16T01:28:04.007Z,14.20
2022-08-16T01:30:40.208Z,14.20
2022-08-16T01:33:19.138Z,14.30
2022-08-16T01:35:57.671Z,14.20
2022-08-16T01:38:29.301Z,14.20
2022-08-16T01:41:02.955Z,14.30
2022-08-16T01:43:31.595Z,14.20
2022-08-16T01:46:37.816Z,13.90
2022-08-16T01:48:53.607Z,13.90
2022-08-16T01:51:23.217Z,13.80
2022-08-16T01:53:54.669Z,13.80
2022-08-16T01:56:24.709Z,13.70
2022-08-16T01:58:57.162Z,13.80
2022-08-16T02:01:27.972Z,13.80
2022-08-16T02:03:58.654Z,13.80
2022-08-16T02:06:38.689Z,13.80
2022-08-16T02:09:11.743Z,13.90
2022-08-16T02:11:47.869Z,13.90
2022-08-16T02:14:26.636Z,13.70
2022-08-16T02:16:59.381Z,13.70
2022-08-16T02:19:59.595Z,13.60
2022-08-16T02:22:34.412Z,13.40
2022-08-16T02:25:05.895Z,13.10
2022-08-16T02:27:32.888Z,12.90
2022-08-16T02:30:05.711Z,13.00
2022-08-16T02:32:48.814Z,13.20
2022-08-16T02:35:18.756Z,13.40
2022-08-16T02:37:52.468Z,13.50
2022-08-16T02:40:21.331Z,13.60
2022-08-16T02:42:50.804Z,13.50
2022-08-16T02:45:20.527Z,13.10
2022-08-16T02:48:01.298Z,12.90
2022-08-16T02:50:54.853Z,13.00
2022-08-16T02:53:26.903Z,13.10
2022-08-16T02:55:54.206Z,13.20
2022-08-16T02:58:25.094Z,13.30
2022-08-16T03:00:56.042Z,13.30
2022-08-16T03:03:23.712Z,13.40
2022-08-16T03:05:52.479Z,13.40
2022-08-16T03:08:51.263Z,13.50
2022-08-16T03:11:16.813Z,13.50
2022-08-16T03:13:51.608Z,13.50
2022-08-16T03:16:36.514Z,13.70
2022-08-16T03:19:06.638Z,13.40
2022-08-16T03:21:37.368Z,13.10
2022-08-16T03:24:28.658Z,13.00
2022-08-16T03:26:53.715Z,13.10
2022-08-16T03:29:30.019Z,13.20
2022-08-16T03:31:59.312Z,13.30
2022-08-16T03:34:27.390Z,13.10
2022-08-16T03:36:55.060Z,13.00
2022-08-16T03:39:22.645Z,13.10
2022-08-16T03:41:51.238Z,13.20
2022-08-16T03:44:40.702Z,13.10
2022-08-16T03:47:11.822Z,13.30
2022-08-16T03:49:38.896Z,13.40
2022-08-16T03:52:06.158Z,13.50
2022-08-16T03:54:35.654Z,13.40
2022-08-16T03:57:05.195Z,13.40
2022-08-16T03:59:32.761Z,13.70
2022-08-16T04:02:01.541Z,13.50
2022-08-16T04:04:33.391Z,13.30
2022-08-16T04:07:02.694Z,13.10
2022-08-16T04:09:38.000Z,13.00
2022-08-16T04:12:11.373Z,12.90
2022-08-16T04:14:53.188Z,12.70
2022-08-16T04:17:21.144Z,12.70
2022-08-16T04:19:51.583Z,12.70
2022-08-16T04:22:27.381Z,12.90
2022-08-16T04:24:55.531Z,13.10
2022-08-16T04:27:28.994Z,13.00
2022-08-16T04:30:02.776Z,12.80
2022-08-16T04:32:30.715Z,12.70
2022-08-16T04:34:57.819Z,12.70
2022-08-16T04:37:24.520Z,12.70
2022-08-16T04:39:57.041Z,12.70
2022-08-16T04:42:26.388Z,12.90
2022-08-16T04:44:58.651Z,12.90
2022-08-16T04:47:33.362Z,13.00
2022-08-16T04:50:30.351Z,13.20
2022-08-16T04:52:59.152Z,13.00
2022-08-16T04:55:31.648Z,12.80
2022-08-16T04:58:03.852Z,12.70
2022-08-16T05:00:50.846Z,12.70
2022-08-16T05:03:17.653Z,12.90
2022-08-16T05:05:58.922Z,13.00
2022-08-16T05:08:29.382Z,13.00
2022-08-16T05:11:00.567Z,13.10
2022-08-16T05:13:41.226Z,13.10
2022-08-16T05:16:20.288Z,13.10
2022-08-16T05:18:49.924Z,13.30
2022-08-16T05:21:17.044Z,13.40
2022-08-16T05:23:51.840Z,13.50
2022-08-16T05:26:23.781Z,13.50
2022-08-16T05:28:55.456Z,13.70
2022-08-16T05:31:24.062Z,13.60
2022-08-16T05:34:00.439Z,13.80
2022-08-16T05:36:34.057Z,13.80
2022-08-16T05:39:09.517Z,13.90
2022-08-16T05:41:45.036Z,14.10
2022-08-16T05:44:22.964Z,14.20
2022-08-16T05:46:53.278Z,14.30
2022-08-16T05:49:22.634Z,14.40
2022-08-16T05:51:50.647Z,14.60
2022-08-16T05:54:23.810Z,14.70
2022-08-16T05:56:53.482Z,14.80
2022-08-16T05:59:22.101Z,14.90
2022-08-16T06:01:52.682Z,15.10
2022-08-16T06:04:34.760Z,15.30
2022-08-16T06:07:09.681Z,15.30
2022-08-16T06:09:51.368Z,15.40
2022-08-16T06:12:26.969Z,15.50
2022-08-16T06:14:58.732Z,15.70
2022-08-16T06:17:42.762Z,15.80
2022-08-16T06:20:23.531Z,16.00
2022-08-16T06:22:58.834Z,16.00
2022-08-16T06:25:36.576Z,16.00
2022-08-16T06:28:09.550Z,16.10
2022-08-16T06:30:43.305Z,16.40
2022-08-16T06:33:12.699Z,16.50
2022-08-16T06:35:40.575Z,16.60
2022-08-16T06:38:22.216Z,16.60
2022-08-16T06:40:56.590Z,16.70
2022-08-16T06:43:27.340Z,16.90
2022-08-16T06:45:55.077Z,17.00
2022-08-16T06:48:32.739Z,17.10
2022-08-16T06:51:06.436Z,17.20
2022-08-16T06:53:36.454Z,17.50
2022-08-16T06:56:13.887Z,17.60
2022-08-16T06:58:41.720Z,17.70
2022-08-16T07:01:09.950Z,17.80
2022-08-16T07:03:54.664Z,18.00
2022-08-16T07:06:26.606Z,18.00
2022-08-16T07:08:54.645Z,18.00
2022-08-16T07:11:47.644Z,18.30
2022-08-16T07:14:25.170Z,18.40
2022-08-16T07:16:54.324Z,18.40
2022-08-16T07:19:21.929Z,18.50
2022-08-16T07:22:38.178Z,18.50
2022-08-16T07:24:55.738Z,18.60
2022-08-16T07:27:22.795Z,18.60
2022-08-16T07:29:55.641Z,18.60
2022-08-16T07:32:29.596Z,18.80
2022-08-16T07:34:58.986Z,19.00
2022-08-16T07:37:25.896Z,19.20
2022-08-16T07:39:54.646Z,19.20
2022-08-16T07:42:28.697Z,19.30
2022-08-16T07:45:02.577Z,19.30
2022-08-16T07:47:31.467Z,19.40
2022-08-16T07:49:59.938Z,19.50
2022-08-16T07:52:32.136Z,19.70
2022-08-16T07:54:59.337Z,19.70
2022-08-16T07:57:26.301Z,19.70
2022-08-16T07:59:53.837Z,19.70
2022-08-16T08:02:27.524Z,19.90
2022-08-16T08:04:56.115Z,20.20
2022-08-16T08:07:27.554Z,20.30
2022-08-16T08:09:56.293Z,20.30
2022-08-16T08:12:32.193Z,20.40
2022-08-16T08:15:05.666Z,20.60
2022-08-16T08:17:42.163Z,20.50
2022-08-16T08:20:20.839Z,20.70
2022-08-16T08:23:00.556Z,20.80
2022-08-16T08:25:53.775Z,21.10
2022-08-16T08:28:17.718Z,21.20
2022-08-16T08:30:51.909Z,21.50
2022-08-16T08:33:27.642Z,21.80
2022-08-16T08:36:00.823Z,22.00
2022-08-16T08:38:42.187Z,22.90
2022-08-16T08:41:11.168Z,23.30
2022-08-16T08:43:41.581Z,23.60
2022-08-16T08:46:18.097Z,23.80
2022-08-16T08:48:59.243Z,24.20
2022-08-16T08:51:27.597Z,24.10
2022-08-16T08:53:59.219Z,24.20
2022-08-16T08:56:26.145Z,24.50
2022-08-16T08:59:00.099Z,25.30
2022-08-16T09:01:42.532Z,25.70
2022-08-16T09:04:10.695Z,25.60
2022-08-16T09:06:43.050Z,25.40
2022-08-16T09:09:16.890Z,25.50
2022-08-16T09:11:47.290Z,25.40
2022-08-16T09:14:24.163Z,25.70
2022-08-16T09:17:01.695Z,25.60
2022-08-16T09:19:33.018Z,26.20
2022-08-16T09:22:00.889Z,26.80
2022-08-16T09:24:51.461Z,26.90
2022-08-16T09:27:14.801Z,26.20
2022-08-16T09:29:44.748Z,26.50
2022-08-16T09:32:12.793Z,26.80
2022-08-16T09:34:58.108Z,27.20
2022-08-16T09:37:29.406Z,26.60
2022-08-16T09:39:59.611Z,27.20
2022-08-16T09:42:28.832Z,27.00
2022-08-16T09:45:11.271Z,26.70
2022-08-16T09:47:56.862Z,27.10
2022-08-16T09:50:36.789Z,27.70
2022-08-16T09:53:15.165Z,27.70
2022-08-16T09:55:49.320Z,27.90
2022-08-16T09:58:40.528Z,27.60
2022-08-16T10:01:05.389Z,28.60
2022-08-16T10:03:32.255Z,27.40
2022-08-16T10:05:59.941Z,28.30
2022-08-16T10:08:27.287Z,29.60
2022-08-16T10:11:13.383Z,27.80
2022-08-16T10:13:43.854Z,28.90
2022-08-16T10:19:02.086Z,28.90
2022-08-16T10:21:32.150Z,28.80
2022-08-16T10:23:59.144Z,28.90
2022-08-16T10:27:18.380Z,28.50
2022-08-16T10:29:19.874Z,28.60
2022-08-16T10:31:53.670Z,30.40
2022-08-16T10:34:31.725Z,29.30
2022-08-16T10:37:00.838Z,27.70
2022-08-16T10:39:40.630Z,28.80
2022-08-16T10:42:10.148Z,29.40
2022-08-16T10:44:40.997Z,29.70
2022-08-16T10:47:10.312Z,30.90
2022-08-16T10:49:39.709Z,29.90
2022-08-16T10:52:18.015Z,30.10
2022-08-16T10:57:33.319Z,29.60
2022-08-16T11:00:05.629Z,30.30
2022-08-16T11:03:00.601Z,29.50
2022-08-16T11:05:59.148Z,29.30
2022-08-16T11:08:35.014Z,29.80
2022-08-16T11:11:12.964Z,30.40
2022-08-16T11:14:10.908Z,31.30
2022-08-16T11:19:22.727Z,30.30
2022-08-16T11:24:43.534Z,29.30
2022-08-16T11:27:23.218Z,29.70
2022-08-16T11:29:52.908Z,30.20
2022-08-16T11:32:30.072Z,29.60
2022-08-16T11:35:10.189Z,29.70
2022-08-16T11:40:32.653Z,30.30
2022-08-16T11:43:01.335Z,30.50
2022-08-16T11:45:28.382Z,29.90
2022-08-16T11:48:00.569Z,28.80
2022-08-16T11:50:27.851Z,28.20
2022-08-16T11:52:54.574Z,28.80
2022-08-16T11:55:23.547Z,29.70
2022-08-16T11:57:51.572Z,30.30
2022-08-16T12:00:33.761Z,30.50
2022-08-16T12:03:12.400Z,30.70
2022-08-16T12:05:43.055Z,30.50
2022-08-16T12:08:11.051Z,30.70
2022-08-16T12:10:40.820Z,29.70
2022-08-16T12:13:10.884Z,29.90
2022-08-16T12:15:38.107Z,30.20
2022-08-16T12:18:05.206Z,30.40
2022-08-16T12:20:37.163Z,30.30
2022-08-16T12:23:05.093Z,29.60
2022-08-16T12:25:33.858Z,29.70
2022-08-16T12:28:03.682Z,30.40
2022-08-16T12:30:38.585Z,30.40
2022-08-16T12:33:07.760Z,30.20
2022-08-16T12:35:36.732Z,30.70
2022-08-16T12:38:38.127Z,30.70
2022-08-16T12:40:57.094Z,31.10
2022-08-16T12:43:25.792Z,29.70
2022-08-16T12:45:59.336Z,29.30
2022-08-16T12:48:52.632Z,29.80
2022-08-16T12:51:24.696Z,29.60
2022-08-16T12:54:02.003Z,29.60
2022-08-16T12:56:33.867Z,30.10
2022-08-16T12:59:04.424Z,30.90
2022-08-16T13:01:34.347Z,30.70
2022-08-16T13:04:12.204Z,30.80
2022-08-16T13:06:48.902Z,31.60
2022-08-16T13:09:21.245Z,31.30
2022-08-16T13:12:04.374Z,31.60
2022-08-16T13:14:36.608Z,30.50
2022-08-16T13:17:07.010Z,30.90
2022-08-16T13:20:05.534Z,31.60
2022-08-16T13:22:23.461Z,31.30
2022-08-16T13:24:52.781Z,30.80
2022-08-16T13:27:20.855Z,30.80
2022-08-16T13:30:21.851Z,31.60
2022-08-16T13:32:54.102Z,30.50
2022-08-16T13:35:22.246Z,31.00
2022-08-16T13:37:49.422Z,30.40
2022-08-16T13:40:19.584Z,29.20
2022-08-16T13:42:48.149Z,28.80
2022-08-16T13:45:16.053Z,28.60
2022-08-16T13:47:42.996Z,29.30
2022-08-16T13:50:11.783Z,29.80
2022-08-16T13:52:39.927Z,30.30
2022-08-16T13:55:17.563Z,30.70
2022-08-16T13:57:53.376Z,30.50
2022-08-16T14:00:32.320Z,30.10
2022-08-16T14:02:59.512Z,31.60
2022-08-16T14:05:27.399Z,30.80
2022-08-16T14:07:54.540Z,30.80
2022-08-16T14:10:21.458Z,31.40
2022-08-16T14:12:48.448Z,31.80
2022-08-16T14:15:17.734Z,31.20
2022-08-16T14:18:15.626Z,31.10
2022-08-16T14:20:31.629Z,31.10
2022-08-16T14:22:58.363Z,30.90
2022-08-16T14:25:26.891Z,31.10
2022-08-16T14:27:54.346Z,31.10
2022-08-16T14:30:22.901Z,30.50
2022-08-16T14:32:51.438Z,30.30
2022-08-16T14:35:29.202Z,30.60
2022-08-16T14:38:04.197Z,31.00
2022-08-16T14:40:31.955Z,31.40
2022-08-16T14:42:58.776Z,30.70
2022-08-16T14:45:34.191Z,31.40
2022-08-16T14:48:00.992Z,31.20
2022-08-16T14:50:28.806Z,31.00
2022-08-16T14:53:03.856Z,31.10
2022-08-16T14:55:33.101Z,31.40
2022-08-16T14:57:59.967Z,31.90
2022-08-16T15:00:33.899Z,31.30
2022-08-16T15:03:06.403Z,30.80
2022-08-16T15:05:38.121Z,30.80
2022-08-16T15:08:05.063Z,31.10
2022-08-16T15:10:32.616Z,31.40
2022-08-16T15:13:00.858Z,31.40
2022-08-16T15:15:30.178Z,31.70
2022-08-16T15:17:58.635Z,31.00
2022-08-16T15:20:32.334Z,31.20
2022-08-16T15:23:03.116Z,31.10
2022-08-16T15:26:03.117Z,31.50
2022-08-16T15:28:38.069Z,31.30
2022-08-16T15:31:09.371Z,31.50
2022-08-16T15:33:49.982Z,31.90
2022-08-16T15:36:19.519Z,31.70
2022-08-16T15:38:58.012Z,31.30
2022-08-16T15:41:42.753Z,32.80
2022-08-16T15:44:22.999Z,33.10
2022-08-16T15:46:56.925Z,32.10
2022-08-16T15:49:34.357Z,32.10
2022-08-16T15:52:11.106Z,31.40
2022-08-16T15:54:52.639Z,31.60
2022-08-16T15:57:27.140Z,32.70
2022-08-16T15:59:55.822Z,33.10
2022-08-16T16:02:30.835Z,33.80
2022-08-16T16:05:00.692Z,34.20
2022-08-16T16:07:30.204Z,35.00
2022-08-16T16:09:59.186Z,34.40
2022-08-16T16:12:53.780Z,35.50
2022-08-16T16:15:17.631Z,35.30
2022-08-16T16:17:47.299Z,34.60
2022-08-16T16:20:18.849Z,34.90
2022-08-16T16:22:46.779Z,35.50
2022-08-16T16:25:15.884Z,35.90
2022-08-16T16:27:45.182Z,35.50
2022-08-16T16:30:33.403Z,35.90
2022-08-16T16:33:01.515Z,35.50
2022-08-16T16:35:32.582Z,34.80
2022-08-16T16:37:59.936Z,36.50
2022-08-16T16:40:32.443Z,38.40
2022-08-16T16:43:00.582Z,38.40
2022-08-16T16:45:34.792Z,38.20
2022-08-16T16:48:12.579Z,37.80
2022-08-16T16:50:40.727Z,38.10
2022-08-16T16:53:16.864Z,37.00
2022-08-16T16:55:51.688Z,35.40
2022-08-16T16:58:43.159Z,36.10
2022-08-16T17:01:10.513Z,36.50
2022-08-16T17:03:38.565Z,36.50
2022-08-16T17:06:09.442Z,35.20
2022-08-16T17:08:40.720Z,35.00
2022-08-16T17:11:08.237Z,35.50
2022-08-16T17:13:35.106Z,35.60
2022-08-16T17:16:02.171Z,35.40
2022-08-16T17:19:16.094Z,34.90
2022-08-16T17:21:17.315Z,35.00
2022-08-16T17:26:31.742Z,34.20
2022-08-16T17:29:02.772Z,34.10
2022-08-16T17:31:43.633Z,33.30
2022-08-16T17:34:28.921Z,33.50
2022-08-16T17:37:00.439Z,34.70
2022-08-16T17:39:28.084Z,35.10
2022-08-16T17:39:29.861Z,34.30
2022-08-16T17:41:58.766Z,34.40
2022-08-16T17:44:25.431Z,34.50
2022-08-16T17:46:53.215Z,34.00
2022-08-16T17:49:20.793Z,34.10
2022-08-16T17:51:48.140Z,33.90
2022-08-16T17:54:29.777Z,31.90
2022-08-16T17:57:00.822Z,31.50
2022-08-16T17:59:29.098Z,31.50
2022-08-16T18:01:56.466Z,30.10
2022-08-16T18:04:48.300Z,28.80
2022-08-16T18:07:14.089Z,28.00
2022-08-16T18:09:42.001Z,27.50
2022-08-16T18:12:50.641Z,27.00
2022-08-16T18:15:09.552Z,26.50
2022-08-16T18:17:36.396Z,26.20
2022-08-16T18:20:05.750Z,25.90
2022-08-16T18:22:33.772Z,25.40
2022-08-16T18:25:00.904Z,25.30
2022-08-16T18:27:30.090Z,25.10
2022-08-16T18:29:56.941Z,24.80
2022-08-16T18:32:25.223Z,24.50
2022-08-16T18:34:54.498Z,24.00
2022-08-16T18:37:23.899Z,23.70
2022-08-16T18:39:50.715Z,23.50
2022-08-16T18:42:17.820Z,23.30
2022-08-16T18:44:44.923Z,23.40
2022-08-16T18:47:12.059Z,23.20
2022-08-16T18:49:39.137Z,23.00
2022-08-16T18:52:06.220Z,23.00
2022-08-16T18:55:01.571Z,22.90
2022-08-16T18:57:21.465Z,22.70
2022-08-16T18:59:48.134Z,22.50
2022-08-16T19:02:54.915Z,22.30
2022-08-16T19:05:34.398Z,22.00
2022-08-16T19:08:02.321Z,22.00
2022-08-16T19:10:31.308Z,21.90
2022-08-16T19:12:58.653Z,21.70
2022-08-16T19:15:27.858Z,21.70
2022-08-16T19:17:55.381Z,21.40
2022-08-16T19:20:25.608Z,21.30
2022-08-16T19:23:05.611Z,21.10
2022-08-16T19:25:46.232Z,20.90
2022-08-16T19:28:51.864Z,20.90
2022-08-16T19:31:05.055Z,21.00
2022-08-16T19:33:31.895Z,20.90
2022-08-16T19:35:58.707Z,20.80
2022-08-16T19:38:25.827Z,20.40
2022-08-16T19:40:53.284Z,20.10
2022-08-16T19:43:22.189Z,20.10
2022-08-16T19:45:51.669Z,19.90
2022-08-16T19:48:18.729Z,19.80
2022-08-16T19:50:45.489Z,19.70
2022-08-16T19:53:19.090Z,19.70
2022-08-16T19:55:47.226Z,19.60
2022-08-16T19:58:16.225Z,19.70
2022-08-16T20:00:44.091Z,19.80
2022-08-16T20:03:15.570Z,19.80
2022-08-16T20:05:43.163Z,19.80
2022-08-16T20:08:11.551Z,20.00
2022-08-16T20:10:40.581Z,19.90
2022-08-16T20:13:13.289Z,19.50
2022-08-16T20:15:41.256Z,19.40
2022-08-16T20:18:21.349Z,18.90
2022-08-16T20:20:53.077Z,18.50
2022-08-16T20:23:24.468Z,18.60
2022-08-16T20:25:53.748Z,18.70
2022-08-16T20:28:51.977Z,18.90
2022-08-16T20:31:07.402Z,19.00
2022-08-16T20:33:34.409Z,19.00
2022-08-16T20:36:01.142Z,19.20
2022-08-16T20:38:28.166Z,19.10
2022-08-16T20:40:55.001Z,19.10
2022-08-16T20:43:22.062Z,19.00
2022-08-16T20:45:49.113Z,19.00
2022-08-16T20:48:16.155Z,18.80
2022-08-16T20:50:43.463Z,18.50
2022-08-16T20:53:10.586Z,18.30
2022-08-16T20:55:40.065Z,18.20
2022-08-16T20:58:07.494Z,18.30
2022-08-16T21:00:34.362Z,18.10
2022-08-16T21:03:06.360Z,18.00
2022-08-16T21:05:34.477Z,18.00
2022-08-16T21:08:02.597Z,18.10
2022-08-16T21:10:48.912Z,18.30
2022-08-16T21:13:17.023Z,18.30
2022-08-16T21:15:44.554Z,18.30
2022-08-16T21:18:11.653Z,18.20
2022-08-16T21:20:39.521Z,18.10
2022-08-16T21:23:10.256Z,18.00
2022-08-16T21:25:40.207Z,17.70
2022-08-16T21:28:41.682Z,17.60
2022-08-16T21:31:15.539Z,17.30
2022-08-16T21:33:43.504Z,17.00
2022-08-16T21:36:11.395Z,17.00
2022-08-16T21:38:39.500Z,16.90
2022-08-16T21:41:08.001Z,17.00
2022-08-16T21:43:34.988Z,17.00
2022-08-16T21:46:03.229Z,17.10
2022-08-16T21:48:33.915Z,17.30
2022-08-16T21:51:08.039Z,17.40
2022-08-16T21:53:35.822Z,17.30
2022-08-16T21:56:03.724Z,17.20
2022-08-16T21:58:31.021Z,17.20
2022-08-16T22:00:58.573Z,17.10
2022-08-16T22:03:25.368Z,17.10
2022-08-16T22:06:02.435Z,17.10
2022-08-16T22:08:49.256Z,17.10
2022-08-16T22:11:19.841Z,17.00
2022-08-16T22:13:51.127Z,16.90
2022-08-16T22:16:24.657Z,17.10
2022-08-16T22:18:52.451Z,17.10
2022-08-16T22:21:19.999Z,16.80
2022-08-16T22:23:57.219Z,16.70
2022-08-16T22:26:31.854Z,16.50
2022-08-16T22:29:07.794Z,16.20
2022-08-16T22:31:36.145Z,16.10
2022-08-16T22:34:04.202Z,16.20
2022-08-16T22:36:32.977Z,16.40
2022-08-16T22:39:03.266Z,16.70
2022-08-16T22:41:31.913Z,16.50
2022-08-16T22:44:00.185Z,16.40
2022-08-16T22:46:26.893Z,16.30
2022-08-16T22:48:54.076Z,16.30
2022-08-16T22:51:23.048Z,16.20
2022-08-16T22:53:50.994Z,16.10
2022-08-16T22:56:18.674Z,15.90
2022-08-16T22:58:46.062Z,15.80
2022-08-16T23:01:14.967Z,15.60
2022-08-16T23:03:42.104Z,15.60
2022-08-16T23:06:11.055Z,15.60
2022-08-16T23:08:40.874Z,15.70
2022-08-16T23:11:22.877Z,15.80
2022-08-16T23:13:55.594Z,15.90
2022-08-16T23:16:34.498Z,15.70
2022-08-16T23:19:08.351Z,15.80
2022-08-16T23:21:37.141Z,15.90
2022-08-16T23:24:05.150Z,15.80
2022-08-16T23:26:44.269Z,15.70
2022-08-16T23:29:24.714Z,15.80
2022-08-16T23:31:58.582Z,15.70
2022-08-16T23:34:27.359Z,15.60
2022-08-16T23:36:54.357Z,15.60
2022-08-16T23:39:22.485Z,15.40
2022-08-16T23:41:49.388Z,15.30
2022-08-16T23:44:42.237Z,15.20
2022-08-16T23:47:05.558Z,15.20
2022-08-16T23:49:59.451Z,15.10
2022-08-16T23:52:39.397Z,15.10
2022-08-16T23:55:06.836Z,15.20
2022-08-16T23:57:33.510Z,15.10
